createdAt,value
2023-03-14T00:00:17.344Z,980.43
2023-03-14T00:01:17.351Z,980.37
2023-03-14T00:02:17.360Z,980.35
2023-03-14T00:03:17.353Z,980.33
2023-03-14T00:04:17.308Z,980.28
2023-03-14T00:05:17.287Z,980.25
2023-03-14T00:06:17.283Z,980.32
2023-03-14T00:07:17.288Z,980.31
2023-03-14T00:08:17.263Z,980.32
2023-03-14T00:09:17.286Z,980.42
2023-03-14T00:10:17.257Z,980.40
2023-03-14T00:11:17.257Z,980.46
2023-03-14T00:12:17.246Z,980.42
2023-03-14T00:13:17.243Z,980.46
2023-03-14T00:14:17.245Z,980.43
2023-03-14T00:15:17.230Z,980.47
2023-03-14T00:16:17.293Z,980.42
2023-03-14T00:17:17.214Z,980.41
2023-03-14T00:18:17.196Z,980.41
2023-03-14T00:19:17.216Z,980.38
2023-03-14T00:20:17.182Z,980.42
2023-03-14T00:21:17.178Z,980.45
2023-03-14T00:22:17.175Z,980.47
2023-03-14T00:23:17.182Z,980.52
2023-03-14T00:24:17.181Z,980.60
2023-03-14T00:25:17.190Z,980.55
2023-03-14T00:26:17.143Z,980.56
2023-03-14T00:27:17.162Z,980.55
2023-03-14T00:28:17.155Z,980.56
2023-03-14T00:29:17.152Z,980.51
2023-03-14T00:30:17.121Z,980.43
2023-03-14T00:31:17.141Z,980.39
2023-03-14T00:32:17.104Z,980.35
2023-03-14T00:33:17.099Z,980.22
2023-03-14T00:34:17.156Z,980.25
2023-03-14T00:35:17.079Z,980.19
2023-03-14T00:37:43.845Z,980.13
2023-03-14T00:38:43.045Z,980.20
2023-03-14T00:39:43.044Z,980.16
2023-03-14T00:40:43.045Z,980.09
2023-03-14T00:41:43.030Z,980.12
2023-03-14T00:42:43.003Z,980.15
2023-03-14T00:43:43.213Z,980.23
2023-03-14T00:44:43.069Z,980.31
2023-03-14T00:45:42.975Z,980.37
2023-03-14T00:46:43.138Z,980.39
2023-03-14T00:47:43.092Z,980.47
2023-03-14T00:48:42.979Z,980.49
2023-03-14T00:49:42.953Z,980.55
2023-03-14T00:50:43.135Z,980.54
2023-03-14T00:51:42.932Z,980.55
2023-03-14T00:52:42.922Z,980.59
2023-03-14T00:53:42.941Z,980.64
2023-03-14T00:54:42.920Z,980.61
2023-03-14T00:55:42.970Z,980.57
2023-03-14T00:56:43.150Z,980.43
2023-03-14T00:57:42.898Z,980.40
2023-03-14T00:58:42.881Z,980.35
2023-03-14T00:59:42.907Z,980.37
2023-03-14T01:00:42.865Z,980.37
2023-03-14T01:01:42.954Z,980.23
2023-03-14T01:02:43.015Z,980.30
2023-03-14T01:03:42.860Z,980.27
2023-03-14T01:04:42.865Z,980.29
2023-03-14T01:05:42.833Z,980.22
2023-03-14T01:06:42.831Z,980.25
2023-03-14T01:07:42.823Z,980.33
2023-03-14T01:08:42.819Z,980.23
2023-03-14T01:09:42.821Z,980.18
2023-03-14T01:10:42.806Z,980.17
2023-03-14T01:11:42.806Z,980.13
2023-03-14T01:12:42.794Z,980.12
2023-03-14T01:13:42.782Z,979.97
2023-03-14T01:14:42.844Z,979.97
2023-03-14T01:15:42.774Z,979.99
2023-03-14T01:16:42.768Z,980.06
2023-03-14T01:17:42.758Z,980.09
2023-03-14T01:18:42.746Z,980.13
2023-03-14T01:19:42.848Z,979.93
2023-03-14T01:20:42.722Z,979.83
2023-03-14T01:21:42.732Z,979.68
2023-03-14T01:22:42.720Z,979.81
2023-03-14T01:23:42.712Z,979.66
2023-03-14T01:24:42.744Z,979.81
2023-03-14T01:25:42.694Z,979.90
2023-03-14T01:26:42.694Z,980.00
2023-03-14T01:27:42.694Z,980.02
2023-03-14T01:28:42.697Z,980.01
2023-03-14T01:29:42.835Z,979.93
2023-03-14T01:30:42.654Z,979.85
2023-03-14T01:31:42.700Z,979.88
2023-03-14T01:32:42.709Z,979.85
2023-03-14T01:33:42.642Z,979.96
2023-03-14T01:34:42.642Z,980.01
2023-03-14T01:35:42.683Z,980.02
2023-03-14T01:36:42.644Z,979.90
2023-03-14T01:37:42.612Z,979.80
2023-03-14T01:38:42.618Z,979.82
2023-03-14T01:39:42.613Z,979.84
2023-03-14T01:40:42.591Z,979.94
2023-03-14T01:41:42.595Z,979.80
2023-03-14T01:42:42.581Z,979.87
2023-03-14T01:43:42.623Z,979.78
2023-03-14T01:44:42.585Z,979.79
2023-03-14T01:45:42.656Z,979.80
2023-03-14T01:46:42.557Z,979.84
2023-03-14T01:47:42.541Z,979.72
2023-03-14T01:48:42.537Z,979.66
2023-03-14T01:49:42.544Z,979.68
2023-03-14T01:50:42.521Z,979.82
2023-03-14T01:51:43.982Z,979.77
2023-03-14T01:52:42.511Z,979.83
2023-03-14T01:53:42.502Z,979.79
2023-03-14T01:54:42.504Z,979.69
2023-03-14T01:55:42.481Z,979.72
2023-03-14T01:56:42.471Z,979.66
2023-03-14T01:57:42.483Z,979.67
2023-03-14T01:58:42.465Z,979.63
2023-03-14T01:59:43.400Z,979.76
2023-03-14T02:00:42.988Z,979.79
2023-03-14T02:01:42.465Z,979.84
2023-03-14T02:02:42.441Z,979.94
2023-03-14T02:03:42.502Z,979.98
2023-03-14T02:04:42.473Z,979.83
2023-03-14T02:05:42.430Z,979.92
2023-03-14T02:06:43.213Z,980.03
2023-03-14T02:07:43.408Z,980.23
2023-03-14T02:08:42.407Z,980.38
2023-03-14T02:09:42.408Z,980.54
2023-03-14T02:10:42.379Z,980.63
2023-03-14T02:11:42.377Z,980.66
2023-03-14T02:12:42.354Z,980.76
2023-03-14T02:13:42.355Z,980.86
2023-03-14T02:14:42.674Z,980.59
2023-03-14T02:15:43.177Z,980.61
2023-03-14T02:16:42.403Z,980.72
2023-03-14T02:17:42.342Z,980.77
2023-03-14T02:18:42.331Z,980.69
2023-03-14T02:19:42.337Z,980.70
2023-03-14T02:20:42.311Z,980.58
2023-03-14T02:21:42.290Z,980.49
2023-03-14T02:22:42.482Z,980.40
2023-03-14T02:23:42.279Z,980.43
2023-03-14T02:24:42.350Z,980.50
2023-03-14T02:25:42.279Z,980.49
2023-03-14T02:26:42.302Z,980.44
2023-03-14T02:27:42.270Z,980.32
2023-03-14T02:28:42.248Z,980.41
2023-03-14T02:29:42.316Z,980.41
2023-03-14T02:30:42.794Z,980.35
2023-03-14T02:31:42.823Z,980.36
2023-03-14T02:32:42.276Z,980.31
2023-03-14T02:33:42.216Z,980.34
2023-03-14T02:34:42.218Z,980.27
2023-03-14T02:35:42.225Z,980.23
2023-03-14T02:36:42.185Z,980.12
2023-03-14T02:37:42.175Z,980.19
2023-03-14T02:38:42.186Z,980.18
2023-03-14T02:39:42.207Z,980.19
2023-03-14T02:40:42.163Z,980.15
2023-03-14T02:41:42.154Z,980.14
2023-03-14T02:42:42.166Z,980.14
2023-03-14T02:43:42.140Z,980.17
2023-03-14T02:44:42.170Z,980.21
2023-03-14T02:45:42.153Z,980.15
2023-03-14T02:46:42.123Z,980.14
2023-03-14T02:47:42.108Z,980.15
2023-03-14T02:48:42.111Z,980.17
2023-03-14T02:49:42.129Z,980.16
2023-03-14T02:50:42.102Z,980.15
2023-03-14T02:51:42.081Z,980.10
2023-03-14T02:52:42.082Z,980.19
2023-03-14T02:53:42.057Z,980.16
2023-03-14T02:54:42.068Z,980.25
2023-03-14T02:55:42.075Z,980.21
2023-03-14T02:56:42.049Z,980.13
2023-03-14T02:57:42.043Z,980.12
2023-03-14T02:58:42.065Z,980.15
2023-03-14T02:59:42.018Z,980.18
2023-03-14T03:00:42.054Z,980.13
2023-03-14T03:01:42.074Z,980.16
2023-03-14T03:02:42.008Z,980.18
2023-03-14T03:03:42.059Z,980.15
2023-03-14T03:04:42.001Z,980.10
2023-03-14T03:05:42.013Z,980.09
2023-03-14T03:06:41.979Z,980.05
2023-03-14T03:07:41.971Z,980.03
2023-03-14T03:08:41.998Z,980.02
2023-03-14T03:09:41.969Z,980.06
2023-03-14T03:10:41.964Z,980.05
2023-03-14T03:11:41.951Z,980.06
2023-03-14T03:12:41.943Z,979.97
2023-03-14T03:13:41.925Z,980.04
2023-03-14T03:14:41.927Z,980.03
2023-03-14T03:15:41.935Z,979.98
2023-03-14T03:16:41.957Z,979.97
2023-03-14T03:17:42.430Z,980.02
2023-03-14T03:18:42.423Z,980.00
2023-03-14T03:19:41.888Z,979.98
2023-03-14T03:20:41.925Z,979.91
2023-03-14T03:21:41.888Z,979.92
2023-03-14T03:22:41.877Z,979.99
2023-03-14T03:23:41.860Z,979.96
2023-03-14T03:24:41.858Z,979.90
2023-03-14T03:25:41.892Z,979.97
2023-03-14T03:26:41.853Z,979.93
2023-03-14T03:27:41.850Z,979.93
2023-03-14T03:28:41.838Z,979.82
2023-03-14T03:29:41.826Z,979.90
2023-03-14T03:30:41.904Z,979.80
2023-03-14T03:31:41.819Z,979.90
2023-03-14T03:32:41.915Z,979.95
2023-03-14T03:33:41.808Z,979.88
2023-03-14T03:34:41.807Z,979.89
2023-03-14T03:35:41.819Z,979.88
2023-03-14T03:36:41.787Z,979.88
2023-03-14T03:37:41.769Z,979.86
2023-03-14T03:38:41.958Z,979.94
2023-03-14T03:39:41.762Z,979.80
2023-03-14T03:40:41.771Z,979.84
2023-03-14T03:41:41.749Z,979.71
2023-03-14T03:42:41.748Z,979.79
2023-03-14T03:43:42.640Z,979.79
2023-03-14T03:44:41.757Z,979.73
2023-03-14T03:45:41.739Z,979.78
2023-03-14T03:46:41.723Z,979.77
2023-03-14T03:47:41.880Z,979.73
2023-03-14T03:48:41.700Z,979.78
2023-03-14T03:49:41.717Z,979.75
2023-03-14T03:50:41.740Z,979.74
2023-03-14T03:51:43.143Z,979.78
2023-03-14T03:52:41.694Z,979.77
2023-03-14T03:53:41.670Z,979.75
2023-03-14T03:54:41.660Z,979.72
2023-03-14T03:55:41.664Z,979.79
2023-03-14T03:56:41.647Z,979.74
2023-03-14T03:57:41.638Z,979.78
2023-03-14T03:58:41.635Z,979.76
2023-03-14T03:59:42.638Z,979.74
2023-03-14T04:00:41.654Z,979.74
2023-03-14T04:01:41.662Z,979.76
2023-03-14T04:02:41.688Z,979.68
2023-03-14T04:03:41.724Z,979.69
2023-03-14T04:04:42.336Z,979.69
2023-03-14T04:05:41.665Z,979.75
2023-03-14T04:06:41.869Z,979.69
2023-03-14T04:07:42.386Z,979.72
2023-03-14T04:08:41.733Z,979.73
2023-03-14T04:09:41.554Z,979.74
2023-03-14T04:10:42.353Z,979.74
2023-03-14T04:11:41.545Z,979.77
2023-03-14T04:12:41.543Z,979.72
2023-03-14T04:13:41.522Z,979.70
2023-03-14T04:14:41.525Z,979.65
2023-03-14T04:15:41.546Z,979.68
2023-03-14T04:16:41.612Z,979.65
2023-03-14T04:17:41.504Z,979.59
2023-03-14T04:18:41.500Z,979.61
2023-03-14T04:19:41.480Z,979.58
2023-03-14T04:20:42.415Z,979.59
2023-03-14T04:21:41.510Z,979.62
2023-03-14T04:22:44.545Z,979.54
2023-03-14T04:23:41.461Z,979.60
2023-03-14T04:24:42.282Z,979.57
2023-03-14T04:25:41.452Z,979.59
2023-03-14T04:26:41.458Z,979.60
2023-03-14T04:27:42.272Z,979.56
2023-03-14T04:28:41.417Z,979.61
2023-03-14T04:29:42.291Z,979.58
2023-03-14T04:30:41.666Z,979.65
2023-03-14T04:31:42.442Z,979.61
2023-03-14T04:32:42.448Z,979.58
2023-03-14T04:33:44.793Z,979.61
2023-03-14T04:34:42.366Z,979.58
2023-03-14T04:35:41.386Z,979.52
2023-03-14T04:36:41.386Z,979.59
2023-03-14T04:37:41.394Z,979.54
2023-03-14T04:38:41.408Z,979.53
2023-03-14T04:39:41.418Z,979.57
2023-03-14T04:40:41.532Z,979.59
2023-03-14T04:41:41.537Z,979.60
2023-03-14T04:42:41.542Z,979.53
2023-03-14T04:43:41.644Z,979.52
2023-03-14T04:44:41.652Z,979.49
2023-03-14T04:45:41.766Z,979.48
2023-03-14T04:46:41.831Z,979.46
2023-03-14T04:47:41.277Z,979.49
2023-03-14T04:48:41.275Z,979.45
2023-03-14T04:49:41.273Z,979.46
2023-03-14T04:50:41.263Z,979.44
2023-03-14T04:51:41.298Z,979.55
2023-03-14T04:52:41.261Z,979.56
2023-03-14T04:53:41.245Z,979.63
2023-03-14T04:54:42.700Z,979.60
2023-03-14T04:55:41.312Z,979.52
2023-03-14T04:56:41.246Z,979.46
2023-03-14T04:57:41.221Z,979.53
2023-03-14T04:58:41.221Z,979.50
2023-03-14T04:59:41.194Z,979.51
2023-03-14T05:00:41.195Z,979.53
2023-03-14T05:01:41.282Z,979.52
2023-03-14T05:02:41.216Z,979.49
2023-03-14T05:03:41.158Z,979.54
2023-03-14T05:04:41.169Z,979.38
2023-03-14T05:05:41.159Z,979.42
2023-03-14T05:06:41.178Z,979.39
2023-03-14T05:07:41.135Z,979.50
2023-03-14T05:08:41.126Z,979.42
2023-03-14T05:09:41.124Z,979.44
2023-03-14T05:10:41.405Z,979.47
2023-03-14T05:11:41.130Z,979.43
2023-03-14T05:12:41.111Z,979.47
2023-03-14T05:13:41.107Z,979.42
2023-03-14T05:14:41.442Z,979.41
2023-03-14T05:15:41.082Z,979.41
2023-03-14T05:16:41.101Z,979.35
2023-03-14T05:17:41.072Z,979.33
2023-03-14T05:18:41.068Z,979.29
2023-03-14T05:19:41.049Z,979.30
2023-03-14T05:20:41.046Z,979.22
2023-03-14T05:21:41.036Z,979.25
2023-03-14T05:22:41.050Z,979.23
2023-03-14T05:23:41.018Z,979.19
2023-03-14T05:24:41.080Z,979.20
2023-03-14T05:25:41.010Z,979.19
2023-03-14T05:26:41.008Z,979.29
2023-03-14T05:27:41.033Z,979.24
2023-03-14T05:28:41.014Z,979.28
2023-03-14T05:29:40.993Z,979.18
2023-03-14T05:30:40.977Z,979.20
2023-03-14T05:31:41.014Z,979.12
2023-03-14T05:32:41.122Z,979.16
2023-03-14T05:33:40.962Z,979.17
2023-03-14T05:34:40.959Z,979.04
2023-03-14T05:35:40.963Z,979.06
2023-03-14T05:36:40.978Z,979.05
2023-03-14T05:37:40.945Z,978.98
2023-03-14T05:38:40.933Z,978.99
2023-03-14T05:39:40.915Z,978.93
2023-03-14T05:40:40.919Z,978.91
2023-03-14T05:41:40.911Z,978.90
2023-03-14T05:42:40.929Z,978.87
2023-03-14T05:43:40.880Z,978.89
2023-03-14T05:44:40.881Z,978.96
2023-03-14T05:45:40.893Z,978.85
2023-03-14T05:46:40.879Z,978.85
2023-03-14T05:47:40.878Z,978.86
2023-03-14T05:48:40.861Z,978.89
2023-03-14T05:49:40.849Z,978.85
2023-03-14T05:50:40.863Z,978.88
2023-03-14T05:51:40.828Z,978.78
2023-03-14T05:52:40.923Z,978.80
2023-03-14T05:53:40.830Z,978.79
2023-03-14T05:54:40.808Z,978.76
2023-03-14T05:55:40.805Z,978.76
2023-03-14T05:56:40.799Z,978.79
2023-03-14T05:57:40.821Z,978.74
2023-03-14T05:58:40.788Z,978.78
2023-03-14T05:59:40.779Z,978.78
2023-03-14T06:00:40.773Z,978.73
2023-03-14T06:01:40.810Z,978.75
2023-03-14T06:02:40.794Z,978.74
2023-03-14T06:03:40.837Z,978.78
2023-03-14T06:04:40.763Z,978.79
2023-03-14T06:05:40.742Z,978.78
2023-03-14T06:06:40.736Z,978.76
2023-03-14T06:07:40.755Z,978.72
2023-03-14T06:08:40.983Z,978.80
2023-03-14T06:09:41.074Z,978.81
2023-03-14T06:10:40.722Z,978.76
2023-03-14T06:11:40.709Z,978.74
2023-03-14T06:12:40.718Z,978.74
2023-03-14T06:13:40.696Z,978.73
2023-03-14T06:14:40.705Z,978.75
2023-03-14T06:15:40.712Z,978.72
2023-03-14T06:16:40.840Z,978.65
2023-03-14T06:17:41.445Z,978.70
2023-03-14T06:18:40.668Z,978.70
2023-03-14T06:19:40.627Z,978.71
2023-03-14T06:20:40.628Z,978.71
2023-03-14T06:21:40.628Z,978.71
2023-03-14T06:22:41.441Z,978.69
2023-03-14T06:23:40.634Z,978.70
2023-03-14T06:24:40.606Z,978.71
2023-03-14T06:25:40.598Z,978.68
2023-03-14T06:26:40.602Z,978.66
2023-03-14T06:27:40.586Z,978.74
2023-03-14T06:28:40.616Z,978.67
2023-03-14T06:29:42.059Z,978.72
2023-03-14T06:30:40.635Z,978.74
2023-03-14T06:31:41.609Z,978.66
2023-03-14T06:32:40.652Z,978.74
2023-03-14T06:33:40.566Z,978.68
2023-03-14T06:34:40.963Z,978.72
2023-03-14T06:35:40.543Z,978.74
2023-03-14T06:36:41.182Z,978.76
2023-03-14T06:37:40.532Z,978.82
2023-03-14T06:38:40.569Z,978.68
2023-03-14T06:39:40.496Z,978.76
2023-03-14T06:40:40.497Z,978.67
2023-03-14T06:41:41.417Z,978.63
2023-03-14T06:42:40.516Z,978.66
2023-03-14T06:43:40.489Z,978.61
2023-03-14T06:44:40.469Z,978.63
2023-03-14T06:45:41.324Z,978.64
2023-03-14T06:46:40.483Z,978.65
2023-03-14T06:47:40.456Z,978.63
2023-03-14T06:48:40.491Z,978.61
2023-03-14T06:49:41.420Z,978.58
2023-03-14T06:50:40.475Z,978.59
2023-03-14T06:51:40.473Z,978.56
2023-03-14T06:52:40.922Z,978.57
2023-03-14T06:53:40.514Z,978.59
2023-03-14T06:54:40.404Z,978.55
2023-03-14T06:55:41.357Z,978.60
2023-03-14T06:56:40.417Z,978.58
2023-03-14T06:57:40.414Z,978.53
2023-03-14T06:58:40.401Z,978.58
2023-03-14T06:59:40.375Z,978.55
2023-03-14T07:00:41.392Z,978.59
2023-03-14T07:01:40.429Z,978.63
2023-03-14T07:02:43.337Z,978.59
2023-03-14T07:03:40.361Z,978.63
2023-03-14T07:04:40.358Z,978.62
2023-03-14T07:05:40.333Z,978.56
2023-03-14T07:06:40.312Z,978.58
2023-03-14T07:07:40.371Z,978.60
2023-03-14T07:08:40.312Z,978.62
2023-03-14T07:09:40.306Z,978.61
2023-03-14T07:10:40.283Z,978.66
2023-03-14T07:11:40.286Z,978.68
2023-03-14T07:12:40.271Z,978.71
2023-03-14T07:13:40.297Z,978.70
2023-03-14T07:14:40.271Z,978.74
2023-03-14T07:15:40.355Z,978.67
2023-03-14T07:16:40.249Z,978.71
2023-03-14T07:17:40.549Z,978.71
2023-03-14T07:18:40.293Z,978.73
2023-03-14T07:19:40.220Z,978.67
2023-03-14T07:20:40.221Z,978.66
2023-03-14T07:21:40.210Z,978.70
2023-03-14T07:22:41.078Z,978.78
2023-03-14T07:23:40.232Z,978.80
2023-03-14T07:24:40.178Z,978.78
2023-03-14T07:25:40.193Z,978.85
2023-03-14T07:26:40.168Z,978.82
2023-03-14T07:27:40.178Z,978.84
2023-03-14T07:28:40.193Z,978.89
2023-03-14T07:29:40.159Z,978.76
2023-03-14T07:30:40.140Z,978.84
2023-03-14T07:31:40.143Z,978.86
2023-03-14T07:32:40.172Z,978.83
2023-03-14T07:33:40.169Z,978.80
2023-03-14T07:34:40.121Z,978.77
2023-03-14T07:35:40.144Z,978.80
2023-03-14T07:36:40.145Z,978.77
2023-03-14T07:37:40.108Z,978.76
2023-03-14T07:38:40.120Z,978.84
2023-03-14T07:39:40.089Z,978.75
2023-03-14T07:40:40.149Z,978.83
2023-03-14T07:41:40.078Z,978.89
2023-03-14T07:42:40.069Z,978.87
2023-03-14T07:43:40.147Z,978.83
2023-03-14T07:44:40.129Z,978.88
2023-03-14T07:45:43.242Z,978.88
2023-03-14T07:46:40.094Z,978.87
2023-03-14T07:47:40.071Z,978.85
2023-03-14T07:48:40.141Z,978.89
2023-03-14T07:49:40.037Z,978.90
2023-03-14T07:50:40.249Z,978.95
2023-03-14T07:51:40.260Z,978.88
2023-03-14T07:52:40.260Z,978.87
2023-03-14T07:53:40.031Z,978.87
2023-03-14T07:54:39.997Z,978.89
2023-03-14T07:55:40.968Z,978.83
2023-03-14T07:56:40.008Z,978.82
2023-03-14T07:57:39.966Z,978.81
2023-03-14T07:58:39.999Z,978.80
2023-03-14T07:59:39.967Z,978.80
2023-03-14T08:00:39.944Z,978.77
2023-03-14T08:01:39.942Z,978.80
2023-03-14T08:02:40.832Z,978.79
2023-03-14T08:03:39.997Z,978.85
2023-03-14T08:04:40.890Z,978.73
2023-03-14T08:05:39.948Z,978.84
2023-03-14T08:06:40.575Z,978.85
2023-03-14T08:07:39.907Z,978.88
2023-03-14T08:08:39.898Z,978.86
2023-03-14T08:09:39.891Z,978.82
2023-03-14T08:10:40.590Z,978.84
2023-03-14T08:11:39.869Z,978.81
2023-03-14T08:12:39.864Z,978.86
2023-03-14T08:13:39.875Z,978.82
2023-03-14T08:14:40.616Z,978.85
2023-03-14T08:15:39.834Z,978.90
2023-03-14T08:16:39.836Z,978.75
2023-03-14T08:17:39.865Z,978.82
2023-03-14T08:18:39.834Z,978.81
2023-03-14T08:19:39.825Z,978.82
2023-03-14T08:20:39.858Z,978.87
2023-03-14T08:21:39.832Z,978.92
2023-03-14T08:22:39.814Z,978.89
2023-03-14T08:23:40.071Z,978.85
2023-03-14T08:24:40.072Z,978.83
2023-03-14T08:25:40.170Z,978.87
2023-03-14T08:26:40.083Z,978.84
2023-03-14T08:27:40.120Z,978.79
2023-03-14T08:28:39.763Z,978.83
2023-03-14T08:29:39.753Z,978.78
2023-03-14T08:30:40.803Z,978.79
2023-03-14T08:31:40.663Z,978.74
2023-03-14T08:32:39.789Z,978.73
2023-03-14T08:33:39.746Z,978.80
2023-03-14T08:34:40.557Z,978.77
2023-03-14T08:35:40.733Z,978.81
2023-03-14T08:36:40.058Z,978.89
2023-03-14T08:37:40.523Z,978.86
2023-03-14T08:38:39.767Z,978.89
2023-03-14T08:39:40.592Z,978.84
2023-03-14T08:40:40.111Z,978.92
2023-03-14T08:41:39.794Z,978.84
2023-03-14T08:42:40.193Z,978.90
2023-03-14T08:43:39.661Z,978.89
2023-03-14T08:44:40.006Z,978.92
2023-03-14T08:45:40.519Z,978.91
2023-03-14T08:46:41.194Z,978.94
2023-03-14T08:47:40.432Z,978.96
2023-03-14T08:48:40.490Z,978.92
2023-03-14T08:49:39.686Z,978.97
2023-03-14T08:50:40.560Z,978.89
2023-03-14T08:51:40.457Z,978.95
2023-03-14T08:52:41.077Z,978.90
2023-03-14T08:53:40.472Z,978.90
2023-03-14T08:54:40.449Z,978.95
2023-03-14T08:55:40.608Z,978.94
2023-03-14T08:56:39.588Z,978.89
2023-03-14T08:57:39.956Z,978.92
2023-03-14T08:58:39.586Z,978.90
2023-03-14T08:59:39.558Z,978.92
2023-03-14T09:00:39.534Z,978.89
2023-03-14T09:01:39.508Z,978.88
2023-03-14T09:02:39.518Z,978.87
2023-03-14T09:03:40.327Z,978.91
2023-03-14T09:04:39.594Z,978.89
2023-03-14T09:05:39.562Z,978.92
2023-03-14T09:06:39.539Z,978.96
2023-03-14T09:07:39.547Z,978.89
2023-03-14T09:08:39.902Z,978.99
2023-03-14T09:09:39.603Z,978.95
2023-03-14T09:10:39.593Z,978.92
2023-03-14T09:11:39.576Z,978.85
2023-03-14T09:12:39.444Z,978.96
2023-03-14T09:13:39.621Z,978.89
2023-03-14T09:14:39.459Z,978.84
2023-03-14T09:15:39.460Z,978.85
2023-03-14T09:16:39.507Z,978.90
2023-03-14T09:17:39.414Z,978.85
2023-03-14T09:18:39.396Z,978.97
2023-03-14T09:19:40.332Z,978.92
2023-03-14T09:20:39.443Z,979.02
2023-03-14T09:21:39.380Z,978.87
2023-03-14T09:22:39.368Z,978.93
2023-03-14T09:23:39.357Z,978.97
2023-03-14T09:24:39.364Z,978.95
2023-03-14T09:25:39.355Z,978.94
2023-03-14T09:26:39.352Z,978.95
2023-03-14T09:27:40.330Z,978.97
2023-03-14T09:28:39.347Z,979.02
2023-03-14T09:29:39.334Z,978.93
2023-03-14T09:30:39.304Z,978.91
2023-03-14T09:31:39.341Z,979.02
2023-03-14T09:32:39.377Z,978.96
2023-03-14T09:33:39.298Z,978.98
2023-03-14T09:34:39.335Z,979.16
2023-03-14T09:35:39.296Z,979.05
2023-03-14T09:36:40.235Z,979.04
2023-03-14T09:37:39.303Z,979.13
2023-03-14T09:38:39.257Z,979.19
2023-03-14T09:39:39.324Z,979.13
2023-03-14T09:40:39.250Z,979.25
2023-03-14T09:41:39.244Z,979.24
2023-03-14T09:42:39.354Z,979.19
2023-03-14T09:43:39.376Z,979.16
2023-03-14T09:44:39.241Z,979.24
2023-03-14T09:45:39.475Z,979.16
2023-03-14T09:46:39.209Z,979.21
2023-03-14T09:47:46.268Z,979.19
2023-03-14T09:48:39.218Z,979.19
2023-03-14T09:49:39.174Z,979.19
2023-03-14T09:50:39.227Z,979.24
2023-03-14T09:51:40.070Z,979.19
2023-03-14T09:52:39.176Z,979.28
2023-03-14T09:53:39.494Z,979.20
2023-03-14T09:54:39.146Z,979.23
2023-03-14T09:55:39.164Z,979.18
2023-03-14T09:56:39.165Z,979.22
2023-03-14T09:57:39.134Z,979.26
2023-03-14T09:58:39.112Z,979.17
2023-03-14T09:59:39.115Z,979.22
2023-03-14T10:00:39.107Z,979.23
2023-03-14T10:01:39.113Z,979.21
2023-03-14T10:02:39.086Z,979.17
2023-03-14T10:03:39.603Z,979.24
2023-03-14T10:04:39.642Z,979.30
2023-03-14T10:05:39.640Z,979.22
2023-03-14T10:06:39.051Z,979.25
2023-03-14T10:07:39.348Z,979.29
2023-03-14T10:08:39.659Z,979.19
2023-03-14T10:09:39.031Z,979.25
2023-03-14T10:10:39.686Z,979.28
2023-03-14T10:11:39.024Z,979.35
2023-03-14T10:12:39.042Z,979.35
2023-03-14T10:13:39.004Z,979.30
2023-03-14T10:14:38.979Z,979.29
2023-03-14T10:15:39.013Z,979.36
2023-03-14T10:16:39.242Z,979.30
2023-03-14T10:17:39.200Z,979.33
2023-03-14T10:18:39.004Z,979.32
2023-03-14T10:19:39.208Z,979.39
2023-03-14T10:20:38.977Z,979.40
2023-03-14T10:21:39.025Z,979.48
2023-03-14T10:22:39.042Z,979.63
2023-03-14T10:23:39.815Z,979.83
2023-03-14T10:24:38.967Z,979.94
2023-03-14T10:25:39.905Z,980.02
2023-03-14T10:26:39.894Z,979.99
2023-03-14T10:27:38.959Z,979.98
2023-03-14T10:28:38.916Z,980.01
2023-03-14T10:29:39.744Z,980.07
2023-03-14T10:30:40.030Z,980.05
2023-03-14T10:31:38.912Z,980.19
2023-03-14T10:32:38.923Z,980.36
2023-03-14T10:33:38.876Z,980.28
2023-03-14T10:34:38.846Z,980.48
2023-03-14T10:35:39.083Z,980.47
2023-03-14T10:36:38.837Z,980.61
2023-03-14T10:37:38.863Z,980.50
2023-03-14T10:38:38.829Z,980.63
2023-03-14T10:39:38.818Z,980.59
2023-03-14T10:40:38.834Z,980.71
2023-03-14T10:41:39.649Z,980.75
2023-03-14T10:42:38.948Z,980.71
2023-03-14T10:43:38.960Z,980.74
2023-03-14T10:44:39.588Z,980.87
2023-03-14T10:45:39.389Z,980.86
2023-03-14T10:46:39.315Z,980.90
2023-03-14T10:47:38.789Z,980.98
2023-03-14T10:48:38.774Z,981.01
2023-03-14T10:49:38.758Z,981.04
2023-03-14T10:50:38.788Z,981.18
2023-03-14T10:51:38.738Z,981.16
2023-03-14T10:53:00.477Z,981.30
2023-03-14T10:53:38.831Z,981.36
2023-03-14T10:54:39.648Z,981.39
2023-03-14T10:55:38.737Z,981.47
2023-03-14T10:56:38.699Z,981.54
2023-03-14T10:57:39.857Z,981.59
2023-03-14T10:58:38.846Z,981.65
2023-03-14T10:59:39.718Z,981.72
2023-03-14T11:00:39.616Z,981.75
2023-03-14T11:01:39.567Z,981.70
2023-03-14T11:02:38.665Z,981.80
2023-03-14T11:03:38.666Z,981.85
2023-03-14T11:04:38.686Z,982.01
2023-03-14T11:05:38.906Z,982.03
2023-03-14T11:06:38.653Z,982.08
2023-03-14T11:07:39.429Z,982.14
2023-03-14T11:08:38.665Z,982.18
2023-03-14T11:09:38.625Z,982.22
2023-03-14T11:10:38.707Z,982.24
2023-03-14T11:11:38.733Z,982.33
2023-03-14T11:12:38.595Z,982.21
2023-03-14T11:13:38.576Z,982.49
2023-03-14T11:14:38.598Z,982.31
2023-03-14T11:15:38.625Z,982.47
2023-03-14T11:16:38.576Z,982.43
2023-03-14T11:17:39.496Z,982.48
2023-03-14T11:18:38.575Z,982.45
2023-03-14T11:19:38.592Z,982.53
2023-03-14T11:20:38.554Z,982.60
2023-03-14T11:21:38.795Z,982.69
2023-03-14T11:22:38.800Z,982.75
2023-03-14T11:23:38.531Z,982.76
2023-03-14T11:24:38.511Z,982.87
2023-03-14T11:25:38.555Z,982.92
2023-03-14T11:26:38.507Z,982.97
2023-03-14T11:27:38.524Z,983.01
2023-03-14T11:28:38.505Z,983.04
2023-03-14T11:29:38.840Z,983.14
2023-03-14T11:30:38.533Z,983.13
2023-03-14T11:31:38.918Z,983.20
2023-03-14T11:32:39.209Z,983.36
2023-03-14T11:33:38.814Z,983.39
2023-03-14T11:34:38.861Z,983.48
2023-03-14T11:35:38.955Z,983.62
2023-03-14T11:36:38.449Z,983.72
2023-03-14T11:37:38.422Z,983.77
2023-03-14T11:38:38.419Z,983.81
2023-03-14T11:39:38.399Z,983.86
2023-03-14T11:40:38.419Z,983.84
2023-03-14T11:41:38.415Z,983.98
2023-03-14T11:42:38.379Z,984.03
2023-03-14T11:43:38.375Z,984.14
2023-03-14T11:44:38.389Z,984.23
2023-03-14T11:45:38.360Z,984.31
2023-03-14T11:46:38.648Z,984.47
2023-03-14T11:47:38.357Z,984.38
2023-03-14T11:48:38.338Z,984.50
2023-03-14T11:49:38.329Z,984.54
2023-03-14T11:50:38.328Z,984.61
2023-03-14T11:51:38.342Z,984.69
2023-03-14T11:52:38.465Z,984.77
2023-03-14T11:53:38.299Z,984.80
2023-03-14T11:54:38.312Z,984.73
2023-03-14T11:55:38.289Z,984.77
2023-03-14T11:56:38.298Z,984.71
2023-03-14T11:57:38.616Z,984.71
2023-03-14T11:58:38.269Z,984.78
2023-03-14T11:59:38.254Z,984.95
2023-03-14T12:00:38.256Z,985.14
2023-03-14T12:01:38.300Z,985.09
2023-03-14T12:02:38.251Z,985.31
2023-03-14T12:03:38.304Z,985.41
2023-03-14T12:04:38.240Z,985.45
2023-03-14T12:05:38.706Z,985.61
2023-03-14T12:06:38.245Z,985.54
2023-03-14T12:07:38.202Z,985.57
2023-03-14T12:08:38.199Z,985.66
2023-03-14T12:09:38.187Z,985.63
2023-03-14T12:10:38.197Z,985.71
2023-03-14T12:11:38.190Z,985.64
2023-03-14T12:12:38.186Z,985.77
2023-03-14T12:13:38.520Z,985.77
2023-03-14T12:14:38.189Z,985.85
2023-03-14T12:15:38.140Z,985.84
2023-03-14T12:16:40.864Z,985.99
2023-03-14T12:17:38.131Z,985.97
2023-03-14T12:18:38.128Z,986.03
2023-03-14T12:19:38.116Z,986.08
2023-03-14T12:20:38.118Z,986.12
2023-03-14T12:21:38.979Z,986.20
2023-03-14T12:22:38.146Z,986.27
2023-03-14T12:23:38.097Z,986.23
2023-03-14T12:24:38.116Z,986.36
2023-03-14T12:25:38.231Z,986.41
2023-03-14T12:26:38.147Z,986.46
2023-03-14T12:27:38.918Z,986.51
2023-03-14T12:28:39.076Z,986.47
2023-03-14T12:29:38.075Z,986.46